Time;durP1;ratioP1;P1;durP2;ratioP2;P2;SDS_P1;SDS_P2;PMS_P1;PMS_P2;Temp;Humidity;BMP_temperature;BMP_pressure;BME280_temperature;BME280_humidity;BME280_pressure;Samples;Min_cycle;Max_cycle;Signal;HPM_P1;HPM_P2
2023/08/13 00:03:55;;;;;;;3.47;2.70;;;23.80;39.20;;;;;;10273787;28;20224;-70
2023/08/13 00:08:58;;;;;;;3.03;2.60;;;23.80;38.90;;;;;;10267104;28;20314;-70
2023/08/13 00:14:03;;;;;;;2.87;2.60;;;23.80;38.90;;;;;;10262301;28;20332;-71
2023/08/13 00:19:06;;;;;;;2.87;2.40;;;23.80;39.80;;;;;;10266291;28;20696;-70
2023/08/13 00:24:09;;;;;;;3.80;2.50;;;23.70;39.10;;;;;;10263141;28;20236;-70
2023/08/13 00:29:14;;;;;;;2.77;2.47;;;23.70;39.30;;;;;;10266734;28;20242;-70
2023/08/13 00:34:17;;;;;;;3.40;2.60;;;23.60;39.70;;;;;;10268522;28;20243;-70
2023/08/13 00:39:20;;;;;;;2.37;2.17;;;23.60;39.60;;;;;;10270956;28;20243;-70
2023/08/13 00:44:25;;;;;;;4.03;2.37;;;23.50;39.60;;;;;;10266169;28;20235;-70
2023/08/13 00:49:28;;;;;;;2.60;2.40;;;23.50;39.60;;;;;;10267700;28;20318;-70
2023/08/13 00:54:31;;;;;;;3.00;2.57;;;23.40;39.50;;;;;;10263093;28;20255;-70
2023/08/13 00:59:36;;;;;;;3.40;2.40;;;23.30;39.40;;;;;;10267027;28;20240;-70
2023/08/13 01:04:39;;;;;;;3.27;2.60;;;23.30;40.00;;;;;;10262576;28;20247;-70
2023/08/13 01:09:49;;;;;;;2.53;2.33;;;23.30;39.40;;;;;;10259511;28;20286;-70
2023/08/13 01:15:03;;;;;;;3.70;2.50;;;23.30;40.60;;;;;;10265263;28;20272;-70
2023/08/13 01:20:08;;;;;;;3.30;2.40;;;23.30;40.50;;;;;;10263674;28;20613;-71
2023/08/13 01:25:13;;;;;;;2.90;2.50;;;23.30;39.40;;;;;;10257017;28;20241;-70
2023/08/13 01:30:23;;;;;;;2.33;2.13;;;23.30;39.90;;;;;;10265611;28;20232;-70
2023/08/13 01:35:27;;;;;;;2.73;2.47;;;23.30;40.30;;;;;;10264109;28;20239;-70
2023/08/13 01:40:32;;;;;;;2.77;2.50;;;23.20;39.50;;;;;;10264509;28;20243;-70
2023/08/13 01:45:35;;;;;;;3.20;2.50;;;23.20;39.80;;;;;;10264065;28;20322;-70
2023/08/13 01:50:39;;;;;;;2.63;2.40;;;23.20;39.30;;;;;;10255479;28;20260;-70
2023/08/13 01:55:44;;;;;;;2.87;2.67;;;23.20;39.60;;;;;;10254558;28;20258;-70
2023/08/13 02:00:47;;;;;;;3.13;2.70;;;23.10;40.10;;;;;;10263376;28;20323;-71
2023/08/13 02:05:50;;;;;;;2.67;2.47;;;23.00;39.40;;;;;;10259081;28;20239;-70
2023/08/13 02:10:55;;;;;;;2.80;2.60;;;22.90;39.80;;;;;;10269402;28;20238;-70
2023/08/13 02:16:02;;;;;;;2.93;2.20;;;22.80;40.60;;;;;;10259781;28;20227;-70
2023/08/13 02:21:06;;;;;;;3.00;2.40;;;22.70;40.90;;;;;;10262399;28;20649;-70
2023/08/13 02:26:12;;;;;;;4.57;2.33;;;22.60;40.00;;;;;;10258674;28;20263;-70
2023/08/13 02:31:15;;;;;;;2.50;2.30;;;22.60;40.80;;;;;;10257388;28;20239;-70
2023/08/13 02:36:18;;;;;;;2.77;2.50;;;22.60;40.20;;;;;;10260831;28;20231;-70
2023/08/13 02:41:23;;;;;;;2.83;2.20;;;22.60;40.20;;;;;;10260953;28;20408;-70
2023/08/13 02:46:27;;;;;;;3.90;2.73;;;22.60;40.60;;;;;;10270369;28;20236;-70
2023/08/13 02:51:31;;;;;;;2.70;2.50;;;22.60;40.70;;;;;;10272681;28;20325;-71
2023/08/13 02:56:35;;;;;;;2.50;2.30;;;22.60;40.00;;;;;;10268085;28;21011;-70
2023/08/13 03:01:39;;;;;;;2.73;2.50;;;22.60;40.50;;;;;;10270682;28;20298;-70
2023/08/13 03:06:42;;;;;;;2.63;2.40;;;22.50;40.20;;;;;;10269463;28;20242;-70
2023/08/13 03:11:47;;;;;;;2.67;2.47;;;22.50;40.30;;;;;;10269944;28;20306;-70
2023/08/13 03:16:50;;;;;;;3.80;2.87;;;22.50;40.70;;;;;;10270496;28;20303;-70
2023/08/13 03:21:53;;;;;;;2.90;2.50;;;22.40;40.50;;;;;;10267043;28;20259;-70
2023/08/13 03:26:57;;;;;;;2.80;2.60;;;22.30;40.40;;;;;;10267880;28;20235;-70
2023/08/13 03:32:01;;;;;;;2.60;2.40;;;22.20;41.20;;;;;;10265011;28;20811;-70
2023/08/13 03:37:04;;;;;;;3.30;3.00;;;22.10;40.70;;;;;;10272803;28;20331;-70
2023/08/13 03:42:09;;;;;;;2.77;2.57;;;22.00;40.70;;;;;;10271156;28;20247;-70
2023/08/13 03:47:12;;;;;;;2.30;2.10;;;21.90;41.20;;;;;;10261587;28;20231;-70
2023/08/13 03:52:15;;;;;;;4.27;2.90;;;21.90;41.00;;;;;;10271530;28;20238;-70
2023/08/13 03:57:20;;;;;;;3.60;2.80;;;21.90;41.20;;;;;;10265717;28;20239;-71
2023/08/13 04:02:25;;;;;;;3.77;2.60;;;21.90;41.50;;;;;;10267702;28;20244;-70
2023/08/13 04:07:29;;;;;;;3.70;2.50;;;21.90;41.10;;;;;;10268203;28;20239;-70
2023/08/13 04:12:33;;;;;;;2.70;2.50;;;21.80;41.10;;;;;;10266713;28;20322;-70
2023/08/13 04:17:36;;;;;;;2.53;2.33;;;21.80;41.60;;;;;;10262002;28;20584;-70
2023/08/13 04:22:39;;;;;;;2.87;2.50;;;21.80;41.20;;;;;;10266737;28;20240;-70
2023/08/13 04:27:44;;;;;;;3.03;2.50;;;21.90;41.30;;;;;;10267413;28;20239;-70
2023/08/13 04:32:54;;;;;;;3.20;2.80;;;21.90;41.80;;;;;;10267838;28;20287;-70
2023/08/13 04:37:57;;;;;;;3.13;2.50;;;21.90;42.50;;;;;;10268566;28;20228;-70
2023/08/13 04:43:02;;;;;;;2.97;2.70;;;21.90;41.70;;;;;;10269424;28;20229;-70
2023/08/13 04:48:05;;;;;;;3.10;2.90;;;21.90;42.30;;;;;;10265711;28;20251;-70
2023/08/13 04:53:09;;;;;;;2.70;2.50;;;21.90;41.90;;;;;;10263628;28;20323;-70
2023/08/13 04:58:13;;;;;;;3.30;3.07;;;21.90;41.90;;;;;;10264055;28;20244;-70
2023/08/13 05:03:16;;;;;;;3.60;2.70;;;21.90;42.60;;;;;;10262981;28;20586;-70
2023/08/13 05:08:20;;;;;;;3.27;2.97;;;21.80;42.00;;;;;;10265499;28;20322;-70
2023/08/13 05:13:24;;;;;;;3.40;3.10;;;22.00;42.30;;;;;;10262290;28;20268;-70
2023/08/13 05:18:27;;;;;;;3.03;2.73;;;22.00;43.00;;;;;;10264991;28;20315;-70
2023/08/13 05:23:30;;;;;;;3.17;2.90;;;22.00;42.60;;;;;;10265987;28;21173;-70
2023/08/13 05:28:35;;;;;;;3.63;3.13;;;22.00;42.80;;;;;;10264609;28;20248;-70
2023/08/13 05:33:38;;;;;;;3.70;3.30;;;22.00;43.30;;;;;;10260726;28;20287;-70
2023/08/13 05:38:41;;;;;;;4.23;3.33;;;22.10;42.90;;;;;;10267173;28;20239;-70
2023/08/13 05:43:46;;;;;;;3.80;3.40;;;22.10;43.30;;;;;;10268094;28;20270;-70
2023/08/13 05:48:49;;;;;;;3.70;3.40;;;22.10;44.00;;;;;;10265624;28;20240;-70
2023/08/13 05:53:52;;;;;;;3.80;3.50;;;22.20;43.80;;;;;;10258701;28;20236;-70
2023/08/13 05:58:57;;;;;;;5.20;4.70;;;22.20;43.80;;;;;;10262917;28;20267;-70
2023/08/13 06:04:00;;;;;;;4.93;4.17;;;22.30;45.00;;;;;;10257289;28;20231;-71
2023/08/13 06:09:05;;;;;;;4.87;4.47;;;22.40;44.40;;;;;;10265765;28;20784;-70
2023/08/13 06:14:10;;;;;;;5.60;4.33;;;22.50;44.70;;;;;;10260765;28;20227;-70
2023/08/13 06:19:13;;;;;;;4.83;4.50;;;22.60;45.40;;;;;;10262381;28;20239;-70
2023/08/13 06:24:16;;;;;;;5.10;4.23;;;22.70;45.00;;;;;;10264524;28;21045;-70
2023/08/13 06:29:20;;;;;;;5.13;4.73;;;22.80;45.10;;;;;;10259704;28;20232;-70
2023/08/13 06:34:24;;;;;;;4.90;4.37;;;22.90;45.80;;;;;;10262616;28;21283;-70
2023/08/13 06:39:28;;;;;;;4.73;4.33;;;23.00;45.40;;;;;;10264538;28;20324;-71
2023/08/13 06:44:34;;;;;;;5.43;4.87;;;23.10;45.60;;;;;;10266526;28;20607;-70
2023/08/13 06:49:37;;;;;;;4.77;4.37;;;23.30;47.30;;;;;;10258606;28;20236;-70
2023/08/13 06:54:40;;;;;;;5.20;4.63;;;23.40;46.00;;;;;;10260210;28;20236;-70
2023/08/13 06:59:45;;;;;;;4.20;3.90;;;23.50;46.20;;;;;;10256238;28;21007;-70
2023/08/13 07:04:48;;;;;;;4.07;3.77;;;23.70;46.90;;;;;;10262205;28;20244;-70
2023/08/13 07:09:52;;;;;;;4.47;4.07;;;23.80;46.30;;;;;;10262362;28;20232;-70
2023/08/13 07:14:57;;;;;;;4.10;3.70;;;24.00;46.60;;;;;;10261302;28;20709;-70
2023/08/13 07:20:01;;;;;;;4.40;3.47;;;24.20;46.80;;;;;;10256083;28;20232;-71
2023/08/13 07:25:05;;;;;;;3.43;3.23;;;24.40;46.30;;;;;;10259405;28;20784;-70
2023/08/13 07:30:11;;;;;;;3.90;3.60;;;24.60;46.30;;;;;;10264054;28;20240;-71
2023/08/13 07:35:15;;;;;;;4.20;3.90;;;24.80;46.90;;;;;;10264136;28;20237;-71
2023/08/13 07:40:19;;;;;;;4.30;3.50;;;25.00;46.40;;;;;;10267390;28;20232;-71
2023/08/13 07:45:24;;;;;;;3.30;3.00;;;25.20;45.80;;;;;;10270045;28;20774;-70
2023/08/13 07:50:28;;;;;;;3.03;2.83;;;25.30;45.50;;;;;;10267448;28;20247;-71
2023/08/13 07:55:31;;;;;;;3.37;3.10;;;25.50;44.90;;;;;;10263560;28;20705;-71
2023/08/13 08:00:35;;;;;;;3.20;2.90;;;25.70;44.90;;;;;;10268807;28;20528;-71
2023/08/13 08:05:41;;;;;;;3.10;2.80;;;25.80;44.70;;;;;;10271791;28;20242;-70
2023/08/13 08:10:44;;;;;;;3.60;3.10;;;26.00;44.30;;;;;;10259840;28;20260;-71
2023/08/13 08:15:50;;;;;;;3.53;3.20;;;26.10;44.00;;;;;;10266520;28;20299;-71
2023/08/13 08:20:53;;;;;;;3.40;3.10;;;26.10;43.90;;;;;;10268377;28;20246;-71
2023/08/13 08:25:56;;;;;;;3.43;3.00;;;26.20;43.80;;;;;;10264695;28;20232;-70
2023/08/13 08:31:01;;;;;;;3.20;3.00;;;26.30;44.40;;;;;;10266666;28;20236;-71
2023/08/13 08:36:04;;;;;;;3.50;3.20;;;26.30;43.20;;;;;;10262221;28;20224;-70
2023/08/13 08:41:09;;;;;;;3.20;2.90;;;26.40;43.20;;;;;;10268025;28;20278;-70
2023/08/13 08:46:16;;;;;;;2.87;2.67;;;26.40;42.70;;;;;;10267897;28;20246;-71
2023/08/13 08:51:21;;;;;;;3.70;3.30;;;26.40;42.70;;;;;;10265426;28;20240;-71
2023/08/13 08:56:26;;;;;;;3.30;3.00;;;26.50;42.90;;;;;;10263535;28;20231;-71
2023/08/13 09:01:30;;;;;;;2.93;2.67;;;26.60;42.60;;;;;;10262496;28;20243;-71
2023/08/13 09:06:53;;;;;;;3.50;2.60;;;26.60;42.30;;;;;;10260375;28;20278;-71
2023/08/13 09:11:58;;;;;;;3.33;2.60;;;26.70;42.00;;;;;;10259950;28;20314;-70
2023/08/13 09:17:03;;;;;;;2.30;2.20;;;26.80;42.10;;;;;;10258633;28;20295;-70
2023/08/13 09:22:07;;;;;;;3.10;2.50;;;27.00;42.20;;;;;;10264267;28;20239;-70
2023/08/13 09:27:10;;;;;;;2.53;2.33;;;27.20;42.40;;;;;;10256746;28;20253;-70
2023/08/13 09:32:19;;;;;;;2.37;2.17;;;27.30;42.40;;;;;;10259234;28;20246;-71
2023/08/13 09:37:25;;;;;;;2.47;2.27;;;27.50;40.90;;;;;;10262500;28;20794;-71
2023/08/13 09:42:32;;;;;;;2.57;2.23;;;27.70;40.20;;;;;;10259839;28;20754;-71
2023/08/13 09:47:39;;;;;;;2.60;2.40;;;28.00;40.90;;;;;;10268281;28;20259;-71
2023/08/13 09:52:47;;;;;;;2.53;2.00;;;28.20;39.80;;;;;;10259638;28;20271;-70
2023/08/13 09:57:53;;;;;;;3.53;2.10;;;28.40;39.60;;;;;;10261320;28;20314;-71
2023/08/13 10:02:58;;;;;;;2.50;2.30;;;28.50;39.00;;;;;;10266578;28;20314;-71
2023/08/13 10:08:02;;;;;;;2.50;2.30;;;28.60;38.70;;;;;;10261113;28;20254;-71
2023/08/13 10:13:05;;;;;;;2.60;2.40;;;28.70;39.00;;;;;;10263962;28;20239;-71
2023/08/13 10:18:11;;;;;;;2.33;2.13;;;28.80;38.60;;;;;;10263285;28;20248;-71
2023/08/13 10:23:14;;;;;;;2.50;2.30;;;29.00;38.70;;;;;;10257701;28;20319;-70
2023/08/13 10:28:22;;;;;;;2.40;2.20;;;29.10;38.70;;;;;;10256060;28;20705;-71
2023/08/13 10:33:30;;;;;;;2.60;2.40;;;29.20;38.40;;;;;;10260720;28;20232;-71
2023/08/13 10:38:34;;;;;;;2.40;2.20;;;29.30;38.00;;;;;;10266280;28;20236;-70
2023/08/13 10:43:37;;;;;;;2.93;2.30;;;29.50;37.80;;;;;;10264025;28;20303;-71
2023/08/13 10:48:43;;;;;;;2.60;2.40;;;29.60;37.90;;;;;;10262992;28;20717;-70
2023/08/13 10:53:47;;;;;;;2.70;2.50;;;29.70;37.40;;;;;;10263456;28;20235;-71
2023/08/13 10:58:51;;;;;;;2.57;2.47;;;29.90;37.90;;;;;;10259778;28;20255;-71
2023/08/13 11:03:57;;;;;;;3.63;2.90;;;30.10;36.90;;;;;;10262423;28;20250;-71
2023/08/13 11:09:00;;;;;;;3.43;3.13;;;30.20;36.80;;;;;;10271593;28;20235;-71
2023/08/13 11:14:04;;;;;;;3.10;2.80;;;30.30;37.00;;;;;;10269689;28;20229;-71
2023/08/13 11:19:09;;;;;;;3.13;2.83;;;30.40;36.80;;;;;;10267871;28;20663;-71
2023/08/13 11:24:13;;;;;;;3.30;3.10;;;30.50;36.20;;;;;;10270970;28;20373;-71
2023/08/13 11:29:20;;;;;;;3.40;3.10;;;30.60;36.60;;;;;;10270930;28;20288;-71
2023/08/13 11:34:24;;;;;;;3.30;3.00;;;30.60;36.10;;;;;;10271197;28;20223;-71
2023/08/13 11:39:28;;;;;;;3.40;2.80;;;30.60;36.30;;;;;;10274321;28;20283;-71
2023/08/13 11:44:32;;;;;;;3.20;3.00;;;30.60;36.50;;;;;;10269895;28;20314;-70
2023/08/13 11:49:42;;;;;;;3.50;3.20;;;30.70;36.80;;;;;;10267017;28;20247;-71
2023/08/13 11:54:46;;;;;;;3.37;3.10;;;30.70;36.00;;;;;;10268846;28;20238;-71
2023/08/13 11:59:50;;;;;;;3.33;3.03;;;30.80;36.70;;;;;;10273539;28;20663;-71
2023/08/13 12:04:55;;;;;;;3.60;3.30;;;30.80;36.40;;;;;;10272046;28;20302;-71
2023/08/13 12:09:58;;;;;;;3.30;3.10;;;30.90;36.00;;;;;;10264130;28;20232;-71
2023/08/13 12:15:01;;;;;;;3.37;3.10;;;30.90;36.20;;;;;;10267875;28;20235;-71
2023/08/13 12:20:07;;;;;;;3.40;3.20;;;30.90;36.20;;;;;;10260248;28;20295;-71
2023/08/13 12:25:10;;;;;;;3.17;2.97;;;31.00;36.00;;;;;;10262704;28;20244;-71
2023/08/13 12:30:14;;;;;;;3.23;3.03;;;31.00;36.00;;;;;;10269709;28;20660;-71
2023/08/13 12:35:19;;;;;;;3.00;2.80;;;31.10;35.50;;;;;;10270600;28;20224;-71
2023/08/13 12:40:23;;;;;;;3.30;3.10;;;31.10;35.20;;;;;;10271278;28;20250;-71
2023/08/13 12:45:26;;;;;;;3.17;2.97;;;31.20;35.40;;;;;;10269648;28;20243;-71
2023/08/13 12:50:30;;;;;;;3.57;3.20;;;31.30;35.70;;;;;;10263272;28;20267;-71
2023/08/13 12:55:34;;;;;;;3.33;3.10;;;31.30;34.70;;;;;;10261666;28;20258;-71
2023/08/13 13:00:37;;;;;;;3.33;3.10;;;31.40;34.90;;;;;;10270086;28;20243;-71
2023/08/13 13:05:42;;;;;;;3.47;3.00;;;31.40;34.80;;;;;;10275998;28;20232;-71
2023/08/13 13:10:45;;;;;;;2.80;2.60;;;31.40;34.10;;;;;;10264350;28;20260;-71
2023/08/13 13:15:48;;;;;;;2.80;2.60;;;31.50;34.30;;;;;;10266343;28;20244;-71
2023/08/13 13:20:53;;;;;;;2.70;2.50;;;31.60;34.40;;;;;;10269103;28;20263;-71
2023/08/13 13:25:56;;;;;;;3.33;3.00;;;31.60;33.80;;;;;;10261335;28;20657;-71
2023/08/13 13:31:04;;;;;;;3.20;2.70;;;31.70;33.80;;;;;;10267727;28;20235;-71
2023/08/13 13:36:09;;;;;;;3.00;2.80;;;31.80;33.90;;;;;;10268854;28;20227;-70
2023/08/13 13:41:12;;;;;;;3.00;2.80;;;31.80;33.70;;;;;;10265162;28;20956;-71
2023/08/13 13:46:16;;;;;;;3.43;3.07;;;31.80;33.70;;;;;;10260785;28;20286;-71
2023/08/13 13:51:21;;;;;;;2.90;2.70;;;31.80;33.50;;;;;;10263279;28;20245;-70
2023/08/13 13:56:24;;;;;;;2.87;2.67;;;31.80;32.80;;;;;;10272261;28;20236;-71
2023/08/13 14:01:27;;;;;;;3.10;2.90;;;31.90;33.70;;;;;;10264023;28;20702;-71
2023/08/13 14:06:32;;;;;;;3.10;2.80;;;32.00;33.70;;;;;;10267680;28;20232;-71
2023/08/13 14:11:35;;;;;;;3.70;2.97;;;32.00;32.90;;;;;;10266726;28;20239;-71
2023/08/13 14:16:38;;;;;;;3.10;2.90;;;32.10;33.00;;;;;;10265086;28;20320;-70
2023/08/13 14:21:43;;;;;;;5.10;2.90;;;32.10;33.00;;;;;;10269941;28;20302;-70
2023/08/13 14:26:49;;;;;;;3.23;2.90;;;32.00;32.90;;;;;;10259040;28;20240;-71
2023/08/13 14:31:52;;;;;;;3.13;2.83;;;32.00;32.90;;;;;;10264018;28;20774;-71
2023/08/13 14:36:57;;;;;;;3.00;2.70;;;32.00;32.90;;;;;;10273636;28;20311;-70
2023/08/13 14:42:01;;;;;;;3.27;2.77;;;32.00;32.90;;;;;;10271230;28;20906;-71
2023/08/13 14:47:04;;;;;;;2.77;2.57;;;31.90;32.80;;;;;;10273311;28;20327;-70
2023/08/13 14:52:09;;;;;;;3.10;2.90;;;31.80;32.70;;;;;;10269947;28;20259;-70
2023/08/13 14:57:12;;;;;;;3.40;3.10;;;31.70;32.70;;;;;;10272654;28;20319;-71
2023/08/13 15:02:15;;;;;;;2.90;2.70;;;31.70;32.90;;;;;;10267380;28;20236;-70
2023/08/13 15:07:20;;;;;;;4.00;2.80;;;31.60;32.60;;;;;;10276123;28;20912;-71
2023/08/13 15:12:23;;;;;;;3.37;3.07;;;31.50;32.50;;;;;;10269567;28;20240;-71
2023/08/13 15:17:44;;;;;;;2.87;2.67;;;31.30;32.40;;;;;;10273818;28;20227;-71
2023/08/13 15:22:48;;;;;;;3.20;2.90;;;31.20;32.30;;;;;;10274122;28;20289;-70
2023/08/13 15:27:51;;;;;;;3.17;2.77;;;30.90;32.20;;;;;;10265217;28;20244;-70
2023/08/13 15:32:54;;;;;;;2.90;2.70;;;30.80;32.20;;;;;;10264783;28;20235;-70
2023/08/13 15:37:59;;;;;;;2.67;2.47;;;30.60;32.60;;;;;;10273376;28;20238;-71
2023/08/13 15:43:02;;;;;;;3.57;2.33;;;30.40;33.00;;;;;;10271166;28;20263;-71
2023/08/13 15:48:06;;;;;;;2.87;2.67;;;30.30;33.10;;;;;;10270225;28;20235;-70
2023/08/13 15:53:11;;;;;;;2.97;2.63;;;30.20;33.40;;;;;;10268399;28;20235;-71
2023/08/13 15:58:14;;;;;;;3.63;2.50;;;30.20;33.70;;;;;;10268769;28;20279;-71
2023/08/13 16:03:18;;;;;;;2.67;2.47;;;30.10;33.90;;;;;;10263899;28;20322;-70
2023/08/13 16:08:23;;;;;;;3.07;2.63;;;30.10;34.00;;;;;;10268694;28;21030;-70
2023/08/13 16:13:27;;;;;;;2.60;2.40;;;30.10;34.10;;;;;;10265340;28;20228;-71
2023/08/13 16:18:30;;;;;;;2.67;2.47;;;30.10;34.20;;;;;;10270182;28;20236;-70
2023/08/13 16:23:35;;;;;;;2.70;2.50;;;30.10;34.30;;;;;;10263701;28;20655;-70
2023/08/13 16:28:38;;;;;;;2.53;2.37;;;30.10;34.30;;;;;;10271726;28;20236;-71
2023/08/13 16:33:41;;;;;;;2.50;2.40;;;30.10;34.40;;;;;;10265428;28;20232;-71
2023/08/13 16:38:46;;;;;;;2.70;2.50;;;30.20;34.50;;;;;;10270556;28;20326;-71
2023/08/13 16:43:49;;;;;;;2.60;2.33;;;30.20;34.70;;;;;;10262957;28;20314;-70
2023/08/13 16:48:53;;;;;;;2.20;2.10;;;30.20;34.40;;;;;;10266832;28;20754;-71
2023/08/13 16:53:58;;;;;;;2.47;2.27;;;30.30;34.90;;;;;;10268583;28;20234;-70
2023/08/13 16:59:01;;;;;;;3.83;2.47;;;30.30;33.80;;;;;;10269429;28;20338;-71
2023/08/13 17:04:05;;;;;;;2.17;1.97;;;30.30;33.80;;;;;;10275860;28;20242;-71
2023/08/13 17:09:09;;;;;;;2.33;2.00;;;30.40;33.40;;;;;;10275822;28;20315;-70
2023/08/13 17:14:12;;;;;;;2.30;2.10;;;30.30;33.00;;;;;;10261222;28;20245;-71
2023/08/13 17:19:16;;;;;;;2.53;2.33;;;30.40;33.30;;;;;;10270731;28;20231;-71
2023/08/13 17:24:20;;;;;;;2.50;2.30;;;30.40;33.30;;;;;;10266477;28;20227;-70
2023/08/13 17:29:23;;;;;;;2.30;2.10;;;30.30;33.10;;;;;;10265614;28;20240;-71
2023/08/13 17:34:27;;;;;;;2.20;2.00;;;30.30;33.30;;;;;;10264169;28;20798;-70
2023/08/13 17:39:31;;;;;;;2.37;2.17;;;30.30;33.50;;;;;;10259894;28;20243;-71
2023/08/13 17:44:34;;;;;;;2.23;2.03;;;30.20;33.60;;;;;;10268991;28;20603;-70
2023/08/13 17:49:38;;;;;;;3.10;2.10;;;30.20;33.60;;;;;;10265212;28;20724;-71
2023/08/13 17:54:42;;;;;;;2.37;2.03;;;30.20;33.60;;;;;;10264091;28;20656;-71
2023/08/13 17:59:45;;;;;;;2.73;2.10;;;30.10;33.60;;;;;;10262917;28;20239;-70
2023/08/13 18:04:49;;;;;;;3.57;2.43;;;30.10;33.90;;;;;;10266103;28;20314;-70
2023/08/13 18:09:53;;;;;;;3.17;2.17;;;30.00;34.40;;;;;;10262637;28;20776;-70
2023/08/13 18:14:56;;;;;;;3.87;2.70;;;29.90;34.60;;;;;;10261863;28;20808;-70
2023/08/13 18:20:00;;;;;;;2.70;2.50;;;29.80;34.20;;;;;;10261516;28;20262;-71
2023/08/13 18:25:05;;;;;;;2.60;2.40;;;29.70;34.30;;;;;;10263288;28;20667;-70
2023/08/13 18:30:09;;;;;;;2.67;2.47;;;29.70;34.30;;;;;;10267005;28;20315;-71
2023/08/13 18:35:12;;;;;;;2.57;2.37;;;29.60;34.40;;;;;;10270406;28;20592;-71
2023/08/13 18:40:17;;;;;;;4.70;2.60;;;29.50;34.50;;;;;;10260234;28;20263;-71
2023/08/13 18:45:20;;;;;;;2.43;2.23;;;29.40;34.60;;;;;;10263631;28;20239;-70
2023/08/13 18:50:23;;;;;;;2.80;2.53;;;29.40;34.60;;;;;;10263548;28;20272;-70
2023/08/13 18:55:28;;;;;;;2.40;2.20;;;29.30;34.80;;;;;;10257596;28;20263;-71
2023/08/13 19:00:31;;;;;;;2.47;2.27;;;29.20;35.30;;;;;;10267919;28;20239;-71
2023/08/13 19:05:35;;;;;;;2.70;2.50;;;29.10;35.10;;;;;;10264556;28;20238;-70
2023/08/13 19:10:45;;;;;;;5.13;2.57;;;29.00;35.30;;;;;;10264506;28;20240;-70
2023/08/13 19:15:48;;;;;;;3.97;2.87;;;28.90;35.80;;;;;;10260091;28;20311;-70
2023/08/13 19:20:53;;;;;;;2.77;2.20;;;28.70;35.50;;;;;;10259443;28;20259;-71
2023/08/13 19:25:58;;;;;;;2.93;2.40;;;28.60;36.00;;;;;;10269189;28;20232;-70
2023/08/13 19:31:01;;;;;;;4.07;3.20;;;28.40;36.30;;;;;;10271851;28;20235;-71
2023/08/13 19:36:06;;;;;;;8.13;6.30;;;28.40;36.20;;;;;;10277525;28;20310;-70
2023/08/13 19:41:10;;;;;;;7.80;7.00;;;28.10;36.60;;;;;;10274282;28;20270;-71
2023/08/13 19:46:14;;;;;;;5.60;4.40;;;27.90;36.90;;;;;;10269719;28;20326;-71
2023/08/13 19:51:17;;;;;;;5.03;4.63;;;27.70;37.00;;;;;;10269172;28;20243;-70
2023/08/13 19:56:21;;;;;;;5.00;4.50;;;27.50;37.40;;;;;;10263469;28;20708;-71
2023/08/13 20:01:25;;;;;;;4.67;4.23;;;27.30;38.00;;;;;;10276714;28;20318;-70
2023/08/13 20:06:28;;;;;;;5.67;4.53;;;27.30;37.90;;;;;;10271007;28;21004;-70
2023/08/13 20:11:33;;;;;;;4.50;3.60;;;27.30;38.00;;;;;;10267039;28;20783;-71
2023/08/13 20:16:37;;;;;;;2.80;2.57;;;27.30;38.50;;;;;;10266042;28;20232;-70
2023/08/13 20:21:47;;;;;;;2.80;2.60;;;27.30;38.00;;;;;;10267963;28;20860;-71
2023/08/13 20:26:52;;;;;;;2.73;2.50;;;27.30;38.80;;;;;;10263398;28;20236;-70
2023/08/13 20:31:55;;;;;;;3.53;3.10;;;27.30;38.50;;;;;;10271183;28;20651;-70
2023/08/13 20:36:58;;;;;;;3.63;3.20;;;27.30;38.30;;;;;;10263564;28;20315;-70
2023/08/13 20:42:03;;;;;;;5.50;3.10;;;27.20;38.20;;;;;;10265948;28;20313;-70
2023/08/13 20:47:08;;;;;;;3.17;2.60;;;27.20;38.70;;;;;;10272897;28;20755;-70
2023/08/13 20:52:11;;;;;;;3.10;2.90;;;27.10;38.40;;;;;;10268034;28;20239;-70
2023/08/13 20:57:16;;;;;;;3.27;2.97;;;27.10;38.40;;;;;;10273068;28;20259;-71
2023/08/13 21:02:19;;;;;;;4.00;3.10;;;27.00;39.10;;;;;;10271203;28;20949;-70
2023/08/13 21:07:22;;;;;;;3.50;3.07;;;27.00;38.80;;;;;;10271296;28;21203;-71
2023/08/13 21:12:26;;;;;;;3.63;3.33;;;27.00;38.90;;;;;;10273754;28;20320;-71
2023/08/13 21:17:30;;;;;;;6.40;4.60;;;26.80;39.20;;;;;;10269628;28;20247;-71
2023/08/13 21:22:33;;;;;;;4.67;4.27;;;26.60;39.30;;;;;;10261422;28;20574;-70
2023/08/13 21:27:38;;;;;;;4.33;3.93;;;26.40;39.90;;;;;;10264481;28;20236;-71
2023/08/13 21:32:42;;;;;;;3.73;3.43;;;26.30;41.20;;;;;;10260921;28;20716;-70
2023/08/13 21:37:45;;;;;;;3.50;3.20;;;26.20;40.50;;;;;;10260501;28;20583;-71
2023/08/13 21:42:50;;;;;;;3.13;2.93;;;26.10;40.40;;;;;;10272138;28;20231;-70
2023/08/13 21:47:53;;;;;;;4.43;4.03;;;26.10;41.00;;;;;;10265007;28;20286;-71
2023/08/13 21:52:56;;;;;;;8.37;7.63;;;26.10;40.90;;;;;;10268315;28;20239;-70
2023/08/13 21:58:01;;;;;;;7.03;6.40;;;26.00;42.20;;;;;;10259004;28;20278;-70
2023/08/13 22:03:05;;;;;;;5.33;4.87;;;25.90;41.70;;;;;;10270275;28;20239;-71
2023/08/13 22:08:08;;;;;;;8.07;3.93;;;25.70;41.80;;;;;;10269644;28;20709;-70
2023/08/13 22:13:12;;;;;;;4.50;4.10;;;25.60;41.90;;;;;;10264057;28;20286;-70
2023/08/13 22:18:16;;;;;;;4.53;3.80;;;25.50;43.20;;;;;;10272807;28;20339;-70
2023/08/13 22:23:19;;;;;;;4.00;3.70;;;25.40;42.60;;;;;;10264655;28;20240;-71
2023/08/13 22:28:24;;;;;;;4.60;4.03;;;25.30;43.20;;;;;;10268684;28;20969;-70
2023/08/13 22:33:27;;;;;;;4.07;3.77;;;25.20;44.40;;;;;;10267462;28;20232;-70
2023/08/13 22:38:30;;;;;;;4.20;3.90;;;25.20;43.80;;;;;;10267836;28;20230;-70
2023/08/13 22:43:34;;;;;;;4.07;3.77;;;25.20;44.10;;;;;;10261879;28;20242;-70
2023/08/13 22:48:37;;;;;;;4.33;3.90;;;25.20;44.90;;;;;;10263352;28;20244;-70
2023/08/13 22:53:41;;;;;;;4.60;4.20;;;25.20;44.00;;;;;;10266678;28;20372;-70
2023/08/13 22:58:45;;;;;;;4.03;3.63;;;25.20;44.00;;;;;;10259099;28;20239;-70
2023/08/13 23:03:48;;;;;;;3.73;3.43;;;25.10;44.70;;;;;;10270984;28;20306;-70
2023/08/13 23:08:52;;;;;;;3.80;3.50;;;25.10;44.10;;;;;;10275614;28;20232;-70
2023/08/13 23:13:56;;;;;;;3.80;3.50;;;25.00;44.00;;;;;;10273698;28;20780;-70
2023/08/13 23:19:00;;;;;;;3.50;3.20;;;24.90;44.50;;;;;;10269019;28;20263;-71
2023/08/13 23:24:03;;;;;;;3.20;3.00;;;24.90;43.80;;;;;;10266697;28;20727;-70
2023/08/13 23:29:09;;;;;;;3.73;3.43;;;24.90;43.70;;;;;;10278444;28;20384;-70
2023/08/13 23:34:12;;;;;;;3.47;3.07;;;25.00;44.20;;;;;;10266493;28;20223;-72
2023/08/13 23:39:17;;;;;;;3.90;3.50;;;24.90;43.40;;;;;;10274635;28;20243;-70
2023/08/13 23:44:21;;;;;;;3.40;3.10;;;24.90;43.40;;;;;;10274222;28;20239;-71
2023/08/13 23:49:25;;;;;;;3.30;3.10;;;24.90;43.90;;;;;;10276373;28;20244;-70
2023/08/13 23:54:28;;;;;;;2.97;2.77;;;25.00;43.60;;;;;;10266965;28;20318;-71
2023/08/13 23:59:33;;;;;;;3.10;2.90;;;25.00;43.40;;;;;;10275808;28;20239;-71
